createdAt,value
2022-10-28T00:01:31.647Z,11.84
2022-10-28T00:04:03.526Z,11.83
2022-10-28T00:06:35.734Z,11.82
2022-10-28T00:09:08.173Z,11.82
2022-10-28T00:11:40.726Z,11.83
2022-10-28T00:14:09.589Z,11.81
2022-10-28T00:16:39.110Z,11.81
2022-10-28T00:19:10.040Z,11.81
2022-10-28T00:21:39.215Z,11.82
2022-10-28T00:24:08.325Z,11.84
2022-10-28T00:26:42.296Z,11.84
2022-10-28T00:29:15.842Z,11.85
2022-10-28T00:31:44.109Z,11.87
2022-10-28T00:34:14.091Z,11.88
2022-10-28T00:36:43.574Z,11.88
2022-10-28T00:39:14.704Z,11.90
2022-10-28T00:41:45.733Z,11.91
2022-10-28T00:44:38.161Z,11.90
2022-10-28T00:47:14.883Z,11.90
2022-10-28T00:49:42.525Z,11.89
2022-10-28T00:52:17.157Z,11.90
2022-10-28T00:54:47.184Z,11.90
2022-10-28T00:57:19.899Z,11.91
2022-10-28T00:59:50.110Z,11.91
2022-10-28T01:02:17.834Z,11.90
2022-10-28T01:04:46.655Z,11.91
2022-10-28T01:07:15.473Z,11.91
2022-10-28T01:09:54.699Z,11.92
2022-10-28T01:12:31.189Z,11.92
2022-10-28T01:15:02.574Z,11.93
2022-10-28T01:17:45.191Z,11.91
2022-10-28T01:20:27.346Z,11.92
2022-10-28T01:23:07.118Z,11.93
2022-10-28T01:25:40.401Z,11.91
2022-10-28T01:28:33.825Z,11.91
2022-10-28T01:31:27.386Z,11.92
2022-10-28T01:34:29.211Z,11.93
2022-10-28T01:36:59.711Z,11.90
2022-10-28T01:39:39.471Z,11.91
2022-10-28T01:42:34.778Z,11.91
2022-10-28T01:45:26.520Z,11.91
2022-10-28T01:48:02.747Z,11.91
2022-10-28T01:50:38.628Z,11.93
2022-10-28T01:53:11.808Z,11.93
2022-10-28T01:55:43.255Z,11.91
2022-10-28T01:58:13.200Z,11.93
2022-10-28T02:00:41.033Z,11.93
2022-10-28T02:03:09.165Z,11.90
2022-10-28T02:05:49.394Z,11.93
2022-10-28T02:08:19.754Z,11.93
2022-10-28T02:11:11.819Z,11.92
2022-10-28T02:13:55.692Z,11.93
2022-10-28T02:16:35.369Z,11.94
2022-10-28T02:19:21.648Z,11.93
2022-10-28T02:22:06.052Z,11.93
2022-10-28T02:24:49.204Z,11.94
2022-10-28T02:27:47.290Z,11.92
2022-10-28T02:30:28.924Z,11.94
2022-10-28T02:32:59.034Z,11.93
2022-10-28T02:35:33.778Z,11.94
2022-10-28T02:38:05.021Z,11.92
2022-10-28T02:40:33.425Z,11.94
2022-10-28T02:43:04.202Z,11.97
2022-10-28T02:45:39.294Z,11.99
2022-10-28T02:48:36.120Z,11.99
2022-10-28T02:51:09.195Z,12.01
2022-10-28T02:54:08.618Z,12.01
2022-10-28T02:56:59.300Z,12.04
2022-10-28T02:59:26.688Z,12.05
2022-10-28T03:01:54.101Z,12.06
2022-10-28T03:04:23.216Z,12.08
2022-10-28T03:06:51.806Z,12.09
2022-10-28T03:09:19.198Z,12.12
2022-10-28T03:11:46.665Z,12.11
2022-10-28T03:14:15.421Z,12.11
2022-10-28T03:16:44.410Z,12.10
2022-10-28T03:19:11.923Z,12.11
2022-10-28T03:21:39.293Z,12.12
2022-10-28T03:24:06.888Z,12.13
2022-10-28T03:26:34.333Z,12.12
2022-10-28T03:29:02.094Z,12.13
2022-10-28T03:31:29.457Z,12.10
2022-10-28T03:33:56.847Z,12.12
2022-10-28T03:36:24.306Z,12.11
2022-10-28T03:38:51.846Z,12.11
2022-10-28T03:41:21.459Z,12.11
2022-10-28T03:43:48.734Z,12.12
2022-10-28T03:46:16.064Z,12.13
2022-10-28T03:48:43.438Z,12.09
2022-10-28T03:51:10.783Z,12.10
2022-10-28T03:53:40.068Z,12.10
2022-10-28T03:56:07.767Z,12.10
2022-10-28T03:58:37.328Z,12.10
2022-10-28T04:01:07.596Z,12.10
2022-10-28T04:03:35.021Z,12.07
2022-10-28T04:06:02.406Z,12.09
2022-10-28T04:08:33.826Z,12.06
2022-10-28T04:11:01.059Z,12.07
2022-10-28T04:13:28.577Z,12.07
2022-10-28T04:15:56.682Z,12.09
2022-10-28T04:18:28.006Z,12.11
2022-10-28T04:20:56.902Z,12.09
2022-10-28T04:23:24.214Z,12.11
2022-10-28T04:25:53.491Z,12.12
2022-10-28T04:28:24.195Z,12.14
2022-10-28T04:30:51.512Z,12.15
2022-10-28T04:33:18.903Z,12.14
2022-10-28T04:35:46.838Z,12.17
2022-10-28T04:38:15.372Z,12.18
2022-10-28T04:40:42.968Z,12.21
2022-10-28T04:43:11.876Z,12.23
2022-10-28T04:45:39.663Z,12.22
2022-10-28T04:48:07.061Z,12.26
2022-10-28T04:50:34.929Z,12.27
2022-10-28T04:53:02.356Z,12.29
2022-10-28T04:55:29.720Z,12.31
2022-10-28T04:57:58.685Z,12.35
2022-10-28T05:00:27.011Z,12.37
2022-10-28T05:02:55.096Z,12.40
2022-10-28T05:05:22.796Z,12.43
2022-10-28T05:07:50.509Z,12.45
2022-10-28T05:10:26.857Z,12.47
2022-10-28T05:12:55.305Z,12.51
2022-10-28T05:15:26.682Z,12.52
2022-10-28T05:17:55.289Z,12.54
2022-10-28T05:20:23.586Z,12.50
2022-10-28T05:22:53.935Z,12.53
2022-10-28T05:25:23.081Z,12.54
2022-10-28T05:27:50.466Z,12.55
2022-10-28T05:30:18.606Z,12.58
2022-10-28T05:32:47.489Z,12.59
2022-10-28T05:35:16.779Z,12.51
2022-10-28T05:37:44.159Z,12.49
2022-10-28T05:40:12.170Z,12.60
2022-10-28T05:42:42.612Z,12.74
2022-10-28T05:45:13.460Z,12.91
2022-10-28T05:47:48.574Z,12.99
2022-10-28T05:50:18.857Z,13.08
2022-10-28T05:52:59.885Z,13.09
2022-10-28T05:55:29.532Z,13.12
2022-10-28T05:57:58.962Z,13.11
2022-10-28T06:00:31.147Z,13.14
2022-10-28T06:03:14.741Z,13.13
2022-10-28T06:05:47.683Z,13.03
2022-10-28T06:08:17.155Z,12.97
2022-10-28T06:10:51.684Z,12.95
2022-10-28T06:13:22.983Z,12.99
2022-10-28T06:15:51.945Z,13.05
2022-10-28T06:18:39.792Z,13.12
2022-10-28T06:21:08.962Z,13.38
2022-10-28T06:23:37.259Z,13.46
2022-10-28T06:26:04.878Z,13.52
2022-10-28T06:28:32.607Z,13.53
2022-10-28T06:31:01.666Z,13.56
2022-10-28T06:33:29.244Z,13.65
2022-10-28T06:35:57.838Z,13.75
2022-10-28T06:38:28.071Z,13.83
2022-10-28T06:40:57.011Z,13.92
2022-10-28T06:43:25.376Z,14.03
2022-10-28T06:45:55.761Z,14.06
2022-10-28T06:48:25.710Z,14.16
2022-10-28T06:50:56.341Z,14.21
2022-10-28T06:53:27.580Z,14.29
2022-10-28T06:55:56.053Z,14.31
2022-10-28T06:58:24.898Z,14.28
2022-10-28T07:00:52.684Z,14.31
2022-10-28T07:03:20.980Z,14.35
2022-10-28T07:05:49.985Z,14.39
2022-10-28T07:08:20.039Z,14.56
2022-10-28T07:10:58.664Z,14.58
2022-10-28T07:13:26.743Z,14.67
2022-10-28T07:15:58.439Z,14.88
2022-10-28T07:18:27.603Z,14.96
2022-10-28T07:20:58.523Z,15.02
2022-10-28T07:23:37.642Z,15.02
2022-10-28T07:26:07.309Z,15.03
2022-10-28T07:28:34.837Z,14.97
2022-10-28T07:31:07.325Z,14.92
2022-10-28T07:33:35.405Z,14.85
2022-10-28T07:36:04.681Z,14.85
2022-10-28T07:38:33.458Z,14.95
2022-10-28T07:41:09.126Z,15.10
2022-10-28T07:43:37.794Z,15.20
2022-10-28T07:46:07.992Z,15.24
2022-10-28T07:48:36.535Z,15.25
2022-10-28T07:51:05.389Z,15.29
2022-10-28T07:53:36.646Z,15.29
2022-10-28T07:56:06.621Z,15.37
2022-10-28T07:58:34.020Z,15.40
2022-10-28T08:01:09.071Z,15.33
2022-10-28T08:03:38.933Z,15.21
2022-10-28T08:06:10.235Z,15.09
2022-10-28T08:08:38.891Z,15.02
2022-10-28T08:11:14.937Z,14.93
2022-10-28T08:13:43.026Z,14.86
2022-10-28T08:16:10.536Z,14.84
2022-10-28T08:18:39.486Z,14.96
2022-10-28T08:21:12.221Z,15.03
2022-10-28T08:23:39.913Z,15.13
2022-10-28T08:26:10.726Z,15.21
2022-10-28T08:28:38.114Z,15.25
2022-10-28T08:31:09.538Z,15.18
2022-10-28T08:33:47.848Z,15.16
2022-10-28T08:36:16.952Z,15.16
2022-10-28T08:38:46.997Z,15.07
2022-10-28T08:41:38.152Z,15.05
2022-10-28T08:44:26.764Z,15.07
2022-10-28T08:47:28.743Z,15.08
2022-10-28T08:50:05.647Z,15.08
2022-10-28T08:52:45.858Z,15.09
2022-10-28T08:55:22.819Z,15.18
2022-10-28T08:57:54.751Z,15.34
2022-10-28T09:00:26.010Z,15.42
2022-10-28T09:03:03.735Z,15.50
2022-10-28T09:05:32.325Z,15.60
2022-10-28T09:08:01.898Z,15.71
2022-10-28T09:10:54.499Z,15.79
2022-10-28T09:14:07.657Z,15.89
2022-10-28T09:16:41.232Z,15.98
2022-10-28T09:19:41.861Z,15.97
2022-10-28T09:22:33.009Z,15.96
2022-10-28T09:25:20.583Z,16.05
2022-10-28T09:28:13.548Z,16.14
2022-10-28T09:30:58.929Z,16.18
2022-10-28T09:33:35.401Z,16.15
2022-10-28T09:36:06.484Z,16.07
2022-10-28T09:38:39.572Z,16.01
2022-10-28T09:41:28.464Z,15.89
2022-10-28T09:44:06.579Z,15.86
2022-10-28T09:46:37.177Z,15.99
2022-10-28T09:49:19.139Z,16.10
2022-10-28T09:52:04.914Z,16.23
2022-10-28T09:54:39.689Z,16.35
2022-10-28T09:57:09.817Z,16.42
2022-10-28T09:59:38.923Z,16.46
2022-10-28T10:02:06.427Z,16.49
2022-10-28T10:04:35.825Z,16.52
2022-10-28T10:07:11.379Z,16.54
2022-10-28T10:09:39.262Z,16.48
2022-10-28T10:12:09.747Z,16.45
2022-10-28T10:14:37.567Z,16.48
2022-10-28T10:17:10.302Z,16.42
2022-10-28T10:19:57.620Z,16.37
2022-10-28T10:22:44.098Z,16.31
2022-10-28T10:25:17.831Z,16.26
2022-10-28T10:28:00.458Z,16.25
2022-10-28T10:30:46.711Z,16.16
2022-10-28T10:33:36.514Z,16.06
2022-10-28T10:36:15.598Z,16.07
2022-10-28T10:39:02.866Z,16.02
2022-10-28T10:41:38.740Z,15.95
2022-10-28T10:44:21.740Z,15.89
2022-10-28T10:47:06.027Z,15.85
2022-10-28T10:49:35.333Z,15.89
2022-10-28T10:52:07.698Z,15.89
2022-10-28T10:54:36.794Z,15.94
2022-10-28T10:57:19.764Z,16.04
2022-10-28T10:59:49.723Z,16.09
2022-10-28T11:02:20.398Z,16.02
2022-10-28T11:05:05.036Z,15.95
2022-10-28T11:07:33.157Z,15.93
2022-10-28T11:10:00.998Z,15.90
2022-10-28T11:12:36.770Z,15.86
2022-10-28T11:15:21.524Z,15.86
2022-10-28T11:18:21.329Z,15.76
2022-10-28T11:20:48.639Z,15.71
2022-10-28T11:23:32.809Z,15.74
2022-10-28T11:26:07.727Z,15.76
2022-10-28T11:28:44.550Z,15.78
2022-10-28T11:31:19.092Z,15.76
2022-10-28T11:33:57.617Z,15.72
2022-10-28T11:36:34.551Z,15.73
2022-10-28T11:39:20.220Z,15.74
2022-10-28T11:42:08.529Z,15.71
2022-10-28T11:44:44.620Z,15.65
2022-10-28T11:47:38.452Z,15.55
2022-10-28T11:50:07.248Z,15.54
2022-10-28T11:55:59.999Z,15.63
2022-10-28T11:58:54.211Z,15.67
2022-10-28T12:01:35.513Z,15.66
2022-10-28T12:04:14.424Z,15.68
2022-10-28T12:07:00.663Z,15.68
2022-10-28T12:10:15.368Z,15.67
2022-10-28T12:12:51.457Z,15.68
2022-10-28T12:15:28.374Z,15.62
2022-10-28T12:18:18.928Z,15.58
2022-10-28T12:21:05.612Z,15.54
2022-10-28T12:23:35.359Z,15.50
2022-10-28T12:26:06.481Z,15.38
2022-10-28T12:28:46.377Z,15.29
2022-10-28T12:31:26.468Z,15.22
2022-10-28T12:34:05.322Z,15.13
2022-10-28T12:36:48.513Z,14.98
2022-10-28T12:39:37.994Z,14.89
2022-10-28T12:42:26.432Z,14.85
2022-10-28T12:45:02.233Z,14.82
2022-10-28T12:47:43.202Z,14.80
2022-10-28T12:50:28.263Z,14.71
2022-10-28T12:53:01.987Z,14.76
2022-10-28T12:55:33.881Z,14.75
2022-10-28T12:58:40.877Z,14.72
2022-10-28T13:01:28.394Z,14.43
2022-10-28T13:03:56.456Z,14.32
2022-10-28T13:06:45.107Z,14.29
2022-10-28T13:09:52.058Z,14.54
2022-10-28T13:12:52.188Z,14.59
2022-10-28T13:16:27.149Z,14.59
2022-10-28T13:37:22.872Z,14.32
2022-10-28T13:39:50.653Z,14.31
2022-10-28T13:42:21.760Z,14.28
2022-10-28T13:44:53.996Z,14.26
2022-10-28T13:47:40.626Z,14.22
2022-10-28T13:50:08.936Z,14.22
2022-10-28T13:52:42.358Z,14.20
2022-10-28T13:55:47.708Z,14.15
2022-10-28T13:58:23.571Z,14.10
2022-10-28T14:00:53.745Z,14.06
2022-10-28T14:07:15.657Z,13.96
2022-10-28T14:09:48.009Z,13.92
2022-10-28T14:12:25.169Z,13.88
2022-10-28T14:15:19.973Z,13.83
2022-10-28T14:18:04.936Z,13.81
2022-10-28T14:20:48.357Z,13.76
2022-10-28T14:23:25.171Z,13.75
2022-10-28T14:26:06.648Z,13.72
2022-10-28T14:28:36.478Z,13.72
2022-10-28T14:31:13.210Z,13.69
2022-10-28T14:33:44.289Z,13.66
2022-10-28T14:36:20.924Z,13.63
2022-10-28T14:39:08.851Z,13.62
2022-10-28T14:41:51.976Z,13.58
2022-10-28T14:44:29.634Z,13.58
2022-10-28T14:47:35.270Z,13.55
2022-10-28T14:50:30.818Z,13.53
2022-10-28T14:53:00.405Z,13.53
2022-10-28T14:55:38.079Z,13.52
2022-10-28T14:58:25.685Z,13.51
2022-10-28T15:01:00.755Z,13.50
2022-10-28T15:03:32.392Z,13.47
2022-10-28T15:06:30.873Z,13.47
2022-10-28T15:09:20.745Z,13.45
2022-10-28T15:12:11.149Z,13.44
2022-10-28T15:14:42.409Z,13.42
2022-10-28T15:17:13.681Z,13.41
2022-10-28T15:19:48.768Z,13.41
2022-10-28T15:22:24.835Z,13.41
2022-10-28T15:25:04.981Z,13.38
2022-10-28T15:27:37.586Z,13.38
2022-10-28T15:30:14.611Z,13.38
2022-10-28T15:32:53.569Z,13.38
2022-10-28T15:35:30.003Z,13.36
2022-10-28T15:38:00.695Z,13.35
2022-10-28T15:40:32.284Z,13.35
2022-10-28T15:43:04.970Z,13.32
2022-10-28T15:48:41.184Z,13.30
2022-10-28T15:51:18.943Z,13.29
2022-10-28T15:53:54.269Z,13.28
2022-10-28T15:56:28.782Z,13.28
2022-10-28T15:59:06.440Z,13.24
2022-10-28T16:01:35.348Z,13.22
2022-10-28T16:04:45.714Z,13.19
2022-10-28T16:07:23.693Z,13.16
2022-10-28T16:10:24.025Z,13.14
2022-10-28T16:12:51.839Z,13.10
2022-10-28T16:19:40.231Z,13.06
2022-10-28T16:22:13.887Z,13.05
2022-10-28T16:24:45.274Z,13.15
2022-10-28T16:27:26.764Z,13.19
2022-10-28T16:29:55.189Z,13.18
2022-10-28T16:32:35.037Z,13.17
2022-10-28T16:35:04.018Z,13.16
2022-10-28T16:37:38.342Z,13.18
2022-10-28T16:40:30.990Z,13.16
2022-10-28T16:42:58.312Z,13.15
2022-10-28T16:45:27.398Z,13.15
2022-10-28T16:47:56.725Z,13.13
2022-10-28T16:53:59.993Z,13.11
2022-10-28T17:12:52.162Z,13.08
2022-10-28T17:16:37.993Z,13.06
2022-10-28T17:19:11.151Z,13.07
2022-10-28T17:21:57.653Z,13.08
2022-10-28T17:27:49.841Z,13.07
2022-10-28T17:37:49.261Z,13.02
2022-10-28T17:40:19.866Z,13.02
2022-10-28T17:43:35.165Z,12.98
2022-10-28T17:46:09.849Z,12.98
2022-10-28T17:52:09.476Z,12.94
2022-10-28T17:54:59.664Z,12.94
2022-10-28T17:57:36.260Z,12.92
2022-10-28T18:00:04.400Z,12.93
2022-10-28T18:02:41.248Z,12.93
2022-10-28T18:05:09.548Z,12.92
2022-10-28T18:07:37.892Z,12.92
2022-10-28T18:10:07.996Z,12.90
2022-10-28T18:12:38.729Z,12.89
2022-10-28T18:21:45.430Z,12.90
2022-10-28T18:32:10.890Z,12.86
2022-10-28T18:41:02.271Z,12.81
2022-10-28T18:43:40.231Z,12.82
2022-10-28T18:52:21.483Z,12.64
2022-10-28T19:31:56.801Z,12.63
2022-10-28T19:34:24.348Z,12.64
2022-10-28T19:36:59.059Z,12.62
2022-10-28T19:39:32.555Z,12.64
2022-10-28T19:42:03.628Z,12.65
2022-10-28T19:44:33.432Z,12.66
2022-10-28T19:47:00.971Z,12.65
2022-10-28T19:52:20.259Z,12.66
2022-10-28T19:54:47.727Z,12.68
2022-10-28T19:57:15.431Z,12.67
2022-10-28T19:59:52.160Z,12.67
2022-10-28T20:02:37.436Z,12.65
2022-10-28T20:05:06.568Z,12.63
2022-10-28T20:07:35.468Z,12.63
2022-10-28T20:26:36.904Z,12.57
2022-10-28T20:29:13.498Z,12.56
2022-10-28T20:31:42.902Z,12.56
2022-10-28T20:34:11.425Z,12.55
2022-10-28T20:36:46.083Z,12.52
2022-10-28T20:39:15.585Z,12.52
2022-10-28T20:41:46.715Z,12.49
2022-10-28T20:44:18.154Z,12.49
2022-10-28T20:46:51.094Z,12.49
2022-10-28T20:49:30.004Z,12.48
2022-10-28T20:52:17.143Z,12.49
2022-10-28T20:54:54.630Z,12.49
2022-10-28T20:57:27.493Z,12.48
2022-10-28T21:00:03.900Z,12.47
2022-10-28T21:05:33.722Z,12.44
2022-10-28T21:09:19.676Z,12.44
2022-10-28T21:11:50.680Z,12.43
2022-10-28T21:14:25.378Z,12.43
2022-10-28T21:16:58.600Z,12.41
2022-10-28T21:19:26.521Z,12.38
2022-10-28T21:21:56.283Z,12.38
2022-10-28T21:24:28.751Z,12.36
2022-10-28T21:27:15.669Z,12.35
2022-10-28T21:29:47.323Z,12.34
2022-10-28T21:32:29.671Z,12.33
2022-10-28T21:34:57.935Z,12.33
2022-10-28T21:37:35.887Z,12.31
2022-10-28T21:40:03.888Z,12.29
2022-10-28T21:42:32.304Z,12.29
2022-10-28T21:44:59.777Z,12.29
2022-10-28T21:47:29.109Z,12.28
2022-10-28T21:49:56.963Z,12.28
2022-10-28T21:52:25.674Z,12.27
2022-10-28T21:54:55.485Z,12.26
2022-10-28T21:57:30.375Z,12.26
2022-10-28T21:59:58.068Z,12.27
2022-10-28T22:02:26.038Z,12.27
2022-10-28T22:04:56.087Z,12.26
2022-10-28T22:10:24.595Z,12.28
2022-10-28T22:12:55.102Z,12.27
2022-10-28T22:15:23.832Z,12.28
2022-10-28T22:17:52.234Z,12.27
2022-10-28T22:20:22.211Z,12.26
2022-10-28T22:22:50.132Z,12.24
2022-10-28T22:25:18.246Z,12.18
2022-10-28T22:27:45.678Z,12.08
2022-10-28T22:30:21.300Z,11.96
2022-10-28T22:32:49.126Z,11.83
2022-10-28T22:35:18.587Z,11.74
2022-10-28T22:37:53.378Z,11.68
2022-10-28T22:40:21.968Z,11.63
2022-10-28T22:42:49.858Z,11.59
2022-10-28T22:45:19.931Z,11.58
2022-10-28T22:47:56.422Z,11.55
2022-10-28T22:50:24.131Z,11.55
2022-10-28T22:52:52.231Z,11.55
2022-10-28T22:55:20.200Z,11.54
2022-10-28T22:57:47.823Z,11.57
2022-10-28T23:00:16.499Z,11.59
2022-10-28T23:02:49.148Z,11.58
2022-10-28T23:05:17.787Z,11.58
2022-10-28T23:07:46.742Z,11.57
2022-10-28T23:10:14.400Z,11.59
2022-10-28T23:12:46.259Z,11.57
2022-10-28T23:15:14.126Z,11.57
2022-10-28T23:17:41.989Z,11.56
2022-10-28T23:20:10.403Z,11.56
2022-10-28T23:22:38.012Z,11.51
2022-10-28T23:25:06.108Z,11.50
2022-10-28T23:27:39.578Z,11.44
2022-10-28T23:30:15.970Z,11.42
2022-10-28T23:32:49.846Z,11.41
2022-10-28T23:35:31.427Z,11.40
2022-10-28T23:38:00.239Z,11.41
2022-10-28T23:40:27.613Z,11.42
2022-10-28T23:43:09.367Z,11.43
2022-10-28T23:45:36.964Z,11.44
2022-10-28T23:48:04.451Z,11.45
2022-10-28T23:50:32.129Z,11.45
2022-10-28T23:53:00.460Z,11.46
2022-10-28T23:55:28.758Z,11.47
2022-10-28T23:57:57.771Z,11.48
